sensor_id;sensor_type;location;lat;lon;timestamp;temperature;humidity
6252;DHT22;3159;52.414;9.784;2022-11-20T00:00:16;-0.10;99.90
6252;DHT22;3159;52.414;9.784;2022-11-20T00:02:43;-0.20;99.90
6252;DHT22;3159;52.414;9.784;2022-11-20T00:05:10;-0.20;99.90
6252;DHT22;3159;52.414;9.784;2022-11-20T00:07:36;-0.30;99.90
6252;DHT22;3159;52.414;9.784;2022-11-20T00:10:04;-0.30;99.90
6252;DHT22;3159;52.414;9.784;2022-11-20T00:12:31;-0.20;99.90
6252;DHT22;3159;52.414;9.784;2022-11-20T00:14:59;-0.30;99.90
6252;DHT22;3159;52.414;9.784;2022-11-20T00:17:26;-0.30;99.90
6252;DHT22;3159;52.414;9.784;2022-11-20T00:19:53;-0.30;99.90
6252;DHT22;3159;52.414;9.784;2022-11-20T00:22:20;-0.30;99.90
6252;DHT22;3159;52.414;9.784;2022-11-20T00:24:46;-0.30;99.90
6252;DHT22;3159;52.414;9.784;2022-11-20T00:27:13;-0.30;99.90
6252;DHT22;3159;52.414;9.784;2022-11-20T00:29:40;-0.30;99.90
6252;DHT22;3159;52.414;9.784;2022-11-20T00:32:08;-0.30;99.90
6252;DHT22;3159;52.414;9.784;2022-11-20T00:34:35;-0.30;99.90
6252;DHT22;3159;52.414;9.784;2022-11-20T00:37:02;-0.30;99.90
6252;DHT22;3159;52.414;9.784;2022-11-20T00:39:29;-0.30;99.90
6252;DHT22;3159;52.414;9.784;2022-11-20T00:41:55;-0.40;99.90
6252;DHT22;3159;52.414;9.784;2022-11-20T00:44:22;-0.30;99.90
6252;DHT22;3159;52.414;9.784;2022-11-20T00:46:49;-0.20;99.90
6252;DHT22;3159;52.414;9.784;2022-11-20T00:49:17;-0.20;99.90
6252;DHT22;3159;52.414;9.784;2022-11-20T00:51:44;-0.30;99.90
6252;DHT22;3159;52.414;9.784;2022-11-20T00:54:11;-0.30;99.90
6252;DHT22;3159;52.414;9.784;2022-11-20T00:56:38;-0.20;99.90
6252;DHT22;3159;52.414;9.784;2022-11-20T00:59:05;-0.20;99.90
6252;DHT22;3159;52.414;9.784;2022-11-20T01:01:32;-0.20;99.90
6252;DHT22;3159;52.414;9.784;2022-11-20T01:04:00;-0.20;99.90
6252;DHT22;3159;52.414;9.784;2022-11-20T01:06:30;-0.20;99.90
6252;DHT22;3159;52.414;9.784;2022-11-20T01:08:58;-0.30;99.90
6252;DHT22;3159;52.414;9.784;2022-11-20T01:11:27;-0.40;99.90
6252;DHT22;3159;52.414;9.784;2022-11-20T01:13:55;-0.40;99.90
6252;DHT22;3159;52.414;9.784;2022-11-20T01:16:24;-0.50;99.90
6252;DHT22;3159;52.414;9.784;2022-11-20T01:18:52;-0.40;99.90
6252;DHT22;3159;52.414;9.784;2022-11-20T01:21:21;-0.50;99.90
6252;DHT22;3159;52.414;9.784;2022-11-20T01:23:50;-0.70;99.90
6252;DHT22;3159;52.414;9.784;2022-11-20T01:26:19;-0.60;99.90
6252;DHT22;3159;52.414;9.784;2022-11-20T01:28:46;-0.50;99.90
6252;DHT22;3159;52.414;9.784;2022-11-20T01:31:16;-0.50;99.90
6252;DHT22;3159;52.414;9.784;2022-11-20T01:33:44;-0.40;99.90
6252;DHT22;3159;52.414;9.784;2022-11-20T01:36:12;-0.40;99.90
6252;DHT22;3159;52.414;9.784;2022-11-20T01:38:39;-0.40;99.90
6252;DHT22;3159;52.414;9.784;2022-11-20T01:41:08;-0.40;99.90
6252;DHT22;3159;52.414;9.784;2022-11-20T01:43:36;-0.50;99.90
6252;DHT22;3159;52.414;9.784;2022-11-20T01:46:13;-0.50;99.90
6252;DHT22;3159;52.414;9.784;2022-11-20T01:48:45;-0.40;99.90
6252;DHT22;3159;52.414;9.784;2022-11-20T01:51:19;-0.40;99.90
6252;DHT22;3159;52.414;9.784;2022-11-20T01:53:48;-0.40;99.90
6252;DHT22;3159;52.414;9.784;2022-11-20T01:56:18;-0.50;99.90
6252;DHT22;3159;52.414;9.784;2022-11-20T01:58:48;-0.60;99.90
6252;DHT22;3159;52.414;9.784;2022-11-20T02:01:16;-0.50;99.90
6252;DHT22;3159;52.414;9.784;2022-11-20T02:03:44;-0.50;99.90
6252;DHT22;3159;52.414;9.784;2022-11-20T02:06:14;-0.50;99.90
6252;DHT22;3159;52.414;9.784;2022-11-20T02:08:42;-0.50;99.90
6252;DHT22;3159;52.414;9.784;2022-11-20T02:11:09;-0.50;99.90
6252;DHT22;3159;52.414;9.784;2022-11-20T02:13:40;-0.40;99.90
6252;DHT22;3159;52.414;9.784;2022-11-20T02:16:20;-0.40;99.90
6252;DHT22;3159;52.414;9.784;2022-11-20T02:18:47;-0.30;99.90
6252;DHT22;3159;52.414;9.784;2022-11-20T02:21:24;-0.30;99.90
6252;DHT22;3159;52.414;9.784;2022-11-20T02:24:06;-0.40;99.90
6252;DHT22;3159;52.414;9.784;2022-11-20T02:26:42;-0.40;99.90
6252;DHT22;3159;52.414;9.784;2022-11-20T02:29:10;-0.40;99.90
6252;DHT22;3159;52.414;9.784;2022-11-20T02:31:40;-0.40;99.90
6252;DHT22;3159;52.414;9.784;2022-11-20T02:34:07;-0.40;99.90
6252;DHT22;3159;52.414;9.784;2022-11-20T02:36:35;-0.30;99.90
6252;DHT22;3159;52.414;9.784;2022-11-20T02:39:04;-0.30;99.90
6252;DHT22;3159;52.414;9.784;2022-11-20T02:41:34;-0.20;99.90
6252;DHT22;3159;52.414;9.784;2022-11-20T02:44:01;-0.20;99.90
6252;DHT22;3159;52.414;9.784;2022-11-20T02:46:29;-0.30;99.90
6252;DHT22;3159;52.414;9.784;2022-11-20T02:48:56;-0.30;99.90
6252;DHT22;3159;52.414;9.784;2022-11-20T02:51:23;-0.40;99.90
6252;DHT22;3159;52.414;9.784;2022-11-20T02:53:50;-0.30;99.90
6252;DHT22;3159;52.414;9.784;2022-11-20T02:56:18;-0.30;99.90
6252;DHT22;3159;52.414;9.784;2022-11-20T02:58:45;-0.30;99.90
6252;DHT22;3159;52.414;9.784;2022-11-20T03:01:14;-0.20;99.90
6252;DHT22;3159;52.414;9.784;2022-11-20T03:03:40;-0.20;99.90
6252;DHT22;3159;52.414;9.784;2022-11-20T03:06:08;-0.20;99.90
6252;DHT22;3159;52.414;9.784;2022-11-20T03:08:35;-0.20;99.90
6252;DHT22;3159;52.414;9.784;2022-11-20T03:11:04;-0.20;99.90
6252;DHT22;3159;52.414;9.784;2022-11-20T03:13:33;-0.20;99.90
6252;DHT22;3159;52.414;9.784;2022-11-20T03:16:08;-0.20;99.90
6252;DHT22;3159;52.414;9.784;2022-11-20T03:18:35;-0.20;99.90
6252;DHT22;3159;52.414;9.784;2022-11-20T03:21:02;-0.10;99.90
6252;DHT22;3159;52.414;9.784;2022-11-20T03:23:30;-0.10;99.90
6252;DHT22;3159;52.414;9.784;2022-11-20T03:26:08;-0.10;99.90
6252;DHT22;3159;52.414;9.784;2022-11-20T03:28:37;-0.20;99.90
6252;DHT22;3159;52.414;9.784;2022-11-20T03:31:09;-0.40;99.90
6252;DHT22;3159;52.414;9.784;2022-11-20T03:33:36;-0.40;99.90
6252;DHT22;3159;52.414;9.784;2022-11-20T03:36:03;-0.30;99.90
6252;DHT22;3159;52.414;9.784;2022-11-20T03:38:31;-0.30;99.90
6252;DHT22;3159;52.414;9.784;2022-11-20T03:41:00;-0.20;99.90
6252;DHT22;3159;52.414;9.784;2022-11-20T03:43:27;-0.30;99.90
6252;DHT22;3159;52.414;9.784;2022-11-20T03:45:55;-0.30;99.90
6252;DHT22;3159;52.414;9.784;2022-11-20T03:48:22;-0.40;99.90
6252;DHT22;3159;52.414;9.784;2022-11-20T03:50:49;-0.50;99.90
6252;DHT22;3159;52.414;9.784;2022-11-20T03:53:16;-0.30;99.90
6252;DHT22;3159;52.414;9.784;2022-11-20T03:55:43;-0.30;99.90
6252;DHT22;3159;52.414;9.784;2022-11-20T03:58:10;-0.30;99.90
6252;DHT22;3159;52.414;9.784;2022-11-20T04:00:38;-0.40;99.90
6252;DHT22;3159;52.414;9.784;2022-11-20T04:03:07;-0.30;99.90
6252;DHT22;3159;52.414;9.784;2022-11-20T04:05:33;-0.30;99.90
6252;DHT22;3159;52.414;9.784;2022-11-20T04:08:00;-0.30;99.90
6252;DHT22;3159;52.414;9.784;2022-11-20T04:10:27;-0.20;99.90
6252;DHT22;3159;52.414;9.784;2022-11-20T04:12:54;-0.10;99.90
6252;DHT22;3159;52.414;9.784;2022-11-20T04:15:21;-0.10;99.90
6252;DHT22;3159;52.414;9.784;2022-11-20T04:17:48;-0.10;99.90
6252;DHT22;3159;52.414;9.784;2022-11-20T04:20:16;-0.10;99.90
6252;DHT22;3159;52.414;9.784;2022-11-20T04:22:43;-0.10;99.90
6252;DHT22;3159;52.414;9.784;2022-11-20T04:25:10;-0.10;99.90
6252;DHT22;3159;52.414;9.784;2022-11-20T04:27:37;-0.10;99.90
6252;DHT22;3159;52.414;9.784;2022-11-20T04:30:05;-0.10;99.90
6252;DHT22;3159;52.414;9.784;2022-11-20T04:32:31;-0.10;99.90
6252;DHT22;3159;52.414;9.784;2022-11-20T04:34:58;-0.10;99.90
6252;DHT22;3159;52.414;9.784;2022-11-20T04:37:26;0.00;99.90
6252;DHT22;3159;52.414;9.784;2022-11-20T04:39:53;0.00;99.90
6252;DHT22;3159;52.414;9.784;2022-11-20T04:42:20;0.00;99.90
6252;DHT22;3159;52.414;9.784;2022-11-20T04:44:57;0.00;99.90
6252;DHT22;3159;52.414;9.784;2022-11-20T04:47:24;0.10;99.90
6252;DHT22;3159;52.414;9.784;2022-11-20T04:49:51;0.10;99.90
6252;DHT22;3159;52.414;9.784;2022-11-20T04:52:18;0.10;99.90
6252;DHT22;3159;52.414;9.784;2022-11-20T04:54:47;0.10;99.90
6252;DHT22;3159;52.414;9.784;2022-11-20T04:57:14;0.10;99.90
6252;DHT22;3159;52.414;9.784;2022-11-20T04:59:42;0.00;99.90
6252;DHT22;3159;52.414;9.784;2022-11-20T05:02:09;0.10;99.90
6252;DHT22;3159;52.414;9.784;2022-11-20T05:04:36;0.10;99.90
6252;DHT22;3159;52.414;9.784;2022-11-20T05:07:02;0.10;99.90
6252;DHT22;3159;52.414;9.784;2022-11-20T05:09:30;0.10;99.90
6252;DHT22;3159;52.414;9.784;2022-11-20T05:11:58;0.10;99.90
6252;DHT22;3159;52.414;9.784;2022-11-20T05:14:25;0.10;99.90
6252;DHT22;3159;52.414;9.784;2022-11-20T05:16:51;0.20;99.90
6252;DHT22;3159;52.414;9.784;2022-11-20T05:19:18;0.20;99.90
6252;DHT22;3159;52.414;9.784;2022-11-20T05:21:45;0.10;99.90
6252;DHT22;3159;52.414;9.784;2022-11-20T05:24:12;0.20;99.90
6252;DHT22;3159;52.414;9.784;2022-11-20T05:26:39;0.10;99.90
6252;DHT22;3159;52.414;9.784;2022-11-20T05:29:09;0.10;99.90
6252;DHT22;3159;52.414;9.784;2022-11-20T05:31:38;0.20;99.90
6252;DHT22;3159;52.414;9.784;2022-11-20T05:34:05;0.10;99.90
6252;DHT22;3159;52.414;9.784;2022-11-20T05:36:32;0.10;99.90
6252;DHT22;3159;52.414;9.784;2022-11-20T05:38:59;0.10;99.90
6252;DHT22;3159;52.414;9.784;2022-11-20T05:41:26;-0.10;99.90
6252;DHT22;3159;52.414;9.784;2022-11-20T05:43:53;0.00;99.90
6252;DHT22;3159;52.414;9.784;2022-11-20T05:46:21;0.10;99.90
6252;DHT22;3159;52.414;9.784;2022-11-20T05:48:48;0.10;99.90
6252;DHT22;3159;52.414;9.784;2022-11-20T05:51:17;0.10;99.90
6252;DHT22;3159;52.414;9.784;2022-11-20T05:53:44;0.00;99.90
6252;DHT22;3159;52.414;9.784;2022-11-20T05:56:12;0.00;99.90
6252;DHT22;3159;52.414;9.784;2022-11-20T05:58:40;0.00;99.90
6252;DHT22;3159;52.414;9.784;2022-11-20T06:01:09;0.00;99.90
6252;DHT22;3159;52.414;9.784;2022-11-20T06:03:38;0.10;99.90
6252;DHT22;3159;52.414;9.784;2022-11-20T06:06:06;0.00;99.90
6252;DHT22;3159;52.414;9.784;2022-11-20T06:08:33;-0.30;99.90
6252;DHT22;3159;52.414;9.784;2022-11-20T06:11:03;-0.20;99.90
6252;DHT22;3159;52.414;9.784;2022-11-20T06:13:31;-0.10;99.90
6252;DHT22;3159;52.414;9.784;2022-11-20T06:15:58;0.00;99.90
6252;DHT22;3159;52.414;9.784;2022-11-20T06:18:26;0.00;99.90
6252;DHT22;3159;52.414;9.784;2022-11-20T06:21:01;0.10;99.90
6252;DHT22;3159;52.414;9.784;2022-11-20T06:23:29;0.10;99.90
6252;DHT22;3159;52.414;9.784;2022-11-20T06:25:57;0.20;99.90
6252;DHT22;3159;52.414;9.784;2022-11-20T06:28:24;0.20;99.90
6252;DHT22;3159;52.414;9.784;2022-11-20T06:30:52;0.20;99.90
6252;DHT22;3159;52.414;9.784;2022-11-20T06:33:19;0.20;99.90
6252;DHT22;3159;52.414;9.784;2022-11-20T06:35:46;0.00;99.90
6252;DHT22;3159;52.414;9.784;2022-11-20T06:38:14;0.00;99.90
6252;DHT22;3159;52.414;9.784;2022-11-20T06:40:41;0.00;99.90
6252;DHT22;3159;52.414;9.784;2022-11-20T06:43:08;0.10;99.90
6252;DHT22;3159;52.414;9.784;2022-11-20T06:45:35;0.00;99.90
6252;DHT22;3159;52.414;9.784;2022-11-20T06:48:02;-0.20;99.90
6252;DHT22;3159;52.414;9.784;2022-11-20T06:50:29;-0.20;99.90
6252;DHT22;3159;52.414;9.784;2022-11-20T06:52:55;-0.30;99.90
6252;DHT22;3159;52.414;9.784;2022-11-20T06:55:24;-0.20;99.90
6252;DHT22;3159;52.414;9.784;2022-11-20T06:57:51;-0.20;99.90
6252;DHT22;3159;52.414;9.784;2022-11-20T07:00:18;0.00;99.90
6252;DHT22;3159;52.414;9.784;2022-11-20T07:02:44;0.00;99.90
6252;DHT22;3159;52.414;9.784;2022-11-20T07:05:11;0.10;99.90
6252;DHT22;3159;52.414;9.784;2022-11-20T07:07:38;0.10;99.90
6252;DHT22;3159;52.414;9.784;2022-11-20T07:10:06;0.00;99.90
6252;DHT22;3159;52.414;9.784;2022-11-20T07:12:34;0.00;99.90
6252;DHT22;3159;52.414;9.784;2022-11-20T07:15:01;0.00;99.90
6252;DHT22;3159;52.414;9.784;2022-11-20T07:17:28;0.00;99.90
6252;DHT22;3159;52.414;9.784;2022-11-20T07:19:55;-0.10;99.90
6252;DHT22;3159;52.414;9.784;2022-11-20T07:22:21;-0.10;99.90
6252;DHT22;3159;52.414;9.784;2022-11-20T07:24:48;-0.10;99.90
6252;DHT22;3159;52.414;9.784;2022-11-20T07:27:15;-0.20;99.90
6252;DHT22;3159;52.414;9.784;2022-11-20T07:29:43;-0.10;99.90
6252;DHT22;3159;52.414;9.784;2022-11-20T07:32:10;0.00;99.90
6252;DHT22;3159;52.414;9.784;2022-11-20T07:34:37;0.00;99.90
6252;DHT22;3159;52.414;9.784;2022-11-20T07:37:04;0.10;99.90
6252;DHT22;3159;52.414;9.784;2022-11-20T07:39:30;0.00;99.90
6252;DHT22;3159;52.414;9.784;2022-11-20T07:41:57;0.10;99.90
6252;DHT22;3159;52.414;9.784;2022-11-20T07:44:24;0.10;99.90
6252;DHT22;3159;52.414;9.784;2022-11-20T07:46:52;0.00;99.90
6252;DHT22;3159;52.414;9.784;2022-11-20T07:49:19;-0.10;99.90
6252;DHT22;3159;52.414;9.784;2022-11-20T07:51:46;0.00;99.90
6252;DHT22;3159;52.414;9.784;2022-11-20T07:54:13;0.00;99.90
6252;DHT22;3159;52.414;9.784;2022-11-20T07:56:39;-0.10;99.90
6252;DHT22;3159;52.414;9.784;2022-11-20T07:59:06;0.00;99.90
6252;DHT22;3159;52.414;9.784;2022-11-20T08:01:33;0.00;99.90
6252;DHT22;3159;52.414;9.784;2022-11-20T08:04:01;0.10;99.90
6252;DHT22;3159;52.414;9.784;2022-11-20T08:06:28;0.10;99.90
6252;DHT22;3159;52.414;9.784;2022-11-20T08:08:55;0.10;99.90
6252;DHT22;3159;52.414;9.784;2022-11-20T08:11:22;0.10;99.90
6252;DHT22;3159;52.414;9.784;2022-11-20T08:14:06;0.10;99.90
6252;DHT22;3159;52.414;9.784;2022-11-20T08:16:39;0.20;99.90
6252;DHT22;3159;52.414;9.784;2022-11-20T08:19:07;0.20;99.90
6252;DHT22;3159;52.414;9.784;2022-11-20T08:21:34;0.30;99.90
6252;DHT22;3159;52.414;9.784;2022-11-20T08:24:01;0.20;99.90
6252;DHT22;3159;52.414;9.784;2022-11-20T08:26:28;0.30;99.90
6252;DHT22;3159;52.414;9.784;2022-11-20T08:28:55;0.30;99.90
6252;DHT22;3159;52.414;9.784;2022-11-20T08:31:23;0.30;99.90
6252;DHT22;3159;52.414;9.784;2022-11-20T08:33:51;0.20;99.90
6252;DHT22;3159;52.414;9.784;2022-11-20T08:36:20;0.20;99.90
6252;DHT22;3159;52.414;9.784;2022-11-20T08:38:48;0.10;99.90
6252;DHT22;3159;52.414;9.784;2022-11-20T08:41:15;0.20;99.90
6252;DHT22;3159;52.414;9.784;2022-11-20T08:43:53;0.30;99.90
6252;DHT22;3159;52.414;9.784;2022-11-20T08:46:20;0.10;99.90
6252;DHT22;3159;52.414;9.784;2022-11-20T08:48:47;0.30;99.90
6252;DHT22;3159;52.414;9.784;2022-11-20T08:51:14;0.50;99.90
6252;DHT22;3159;52.414;9.784;2022-11-20T08:53:42;0.60;99.90
6252;DHT22;3159;52.414;9.784;2022-11-20T08:56:09;0.60;99.90
6252;DHT22;3159;52.414;9.784;2022-11-20T08:58:36;0.60;99.90
6252;DHT22;3159;52.414;9.784;2022-11-20T09:01:04;0.60;99.90
6252;DHT22;3159;52.414;9.784;2022-11-20T09:03:31;0.70;99.90
6252;DHT22;3159;52.414;9.784;2022-11-20T09:05:58;0.60;99.90
6252;DHT22;3159;52.414;9.784;2022-11-20T09:08:26;0.70;99.90
6252;DHT22;3159;52.414;9.784;2022-11-20T09:10:55;0.70;99.90
6252;DHT22;3159;52.414;9.784;2022-11-20T09:13:23;0.80;99.90
6252;DHT22;3159;52.414;9.784;2022-11-20T09:15:53;0.90;99.90
6252;DHT22;3159;52.414;9.784;2022-11-20T09:18:20;0.90;99.90
6252;DHT22;3159;52.414;9.784;2022-11-20T09:20:47;0.90;99.90
6252;DHT22;3159;52.414;9.784;2022-11-20T09:23:14;0.80;99.90
6252;DHT22;3159;52.414;9.784;2022-11-20T09:25:41;0.90;99.90
6252;DHT22;3159;52.414;9.784;2022-11-20T09:28:10;0.90;99.90
6252;DHT22;3159;52.414;9.784;2022-11-20T09:30:37;1.10;99.90
6252;DHT22;3159;52.414;9.784;2022-11-20T09:33:04;1.30;99.90
6252;DHT22;3159;52.414;9.784;2022-11-20T09:35:32;1.40;99.90
6252;DHT22;3159;52.414;9.784;2022-11-20T09:38:04;1.60;99.90
6252;DHT22;3159;52.414;9.784;2022-11-20T09:40:31;2.00;99.90
6252;DHT22;3159;52.414;9.784;2022-11-20T09:43:03;2.00;99.90
6252;DHT22;3159;52.414;9.784;2022-11-20T09:45:50;2.00;99.90
6252;DHT22;3159;52.414;9.784;2022-11-20T09:48:31;2.20;99.90
6252;DHT22;3159;52.414;9.784;2022-11-20T09:51:10;2.20;99.90
6252;DHT22;3159;52.414;9.784;2022-11-20T09:53:51;2.50;99.90
6252;DHT22;3159;52.414;9.784;2022-11-20T09:56:21;2.20;99.90
6252;DHT22;3159;52.414;9.784;2022-11-20T09:58:51;1.90;99.90
6252;DHT22;3159;52.414;9.784;2022-11-20T10:01:21;2.20;99.90
6252;DHT22;3159;52.414;9.784;2022-11-20T10:03:55;2.30;99.90
6252;DHT22;3159;52.414;9.784;2022-11-20T10:06:29;2.30;99.90
6252;DHT22;3159;52.414;9.784;2022-11-20T10:09:04;2.10;99.90
6252;DHT22;3159;52.414;9.784;2022-11-20T10:11:38;2.10;99.90
6252;DHT22;3159;52.414;9.784;2022-11-20T10:14:18;2.10;99.90
6252;DHT22;3159;52.414;9.784;2022-11-20T10:16:55;1.90;99.90
6252;DHT22;3159;52.414;9.784;2022-11-20T10:19:40;1.80;99.90
6252;DHT22;3159;52.414;9.784;2022-11-20T10:22:20;1.50;99.90
6252;DHT22;3159;52.414;9.784;2022-11-20T10:24:53;1.50;99.90
6252;DHT22;3159;52.414;9.784;2022-11-20T10:27:44;1.50;99.90
6252;DHT22;3159;52.414;9.784;2022-11-20T10:30:16;1.50;99.90
6252;DHT22;3159;52.414;9.784;2022-11-20T10:32:47;1.60;99.90
6252;DHT22;3159;52.414;9.784;2022-11-20T10:35:20;1.70;99.90
6252;DHT22;3159;52.414;9.784;2022-11-20T10:37:51;1.90;99.90
6252;DHT22;3159;52.414;9.784;2022-11-20T10:40:27;1.90;99.90
6252;DHT22;3159;52.414;9.784;2022-11-20T10:42:57;1.90;99.90
6252;DHT22;3159;52.414;9.784;2022-11-20T10:45:39;1.90;99.90
6252;DHT22;3159;52.414;9.784;2022-11-20T10:48:16;1.90;99.90
6252;DHT22;3159;52.414;9.784;2022-11-20T10:50:54;1.90;99.90
6252;DHT22;3159;52.414;9.784;2022-11-20T10:53:33;1.90;99.90
6252;DHT22;3159;52.414;9.784;2022-11-20T10:56:07;1.80;99.90
6252;DHT22;3159;52.414;9.784;2022-11-20T10:58:42;1.70;99.90
6252;DHT22;3159;52.414;9.784;2022-11-20T11:01:14;1.80;99.90
6252;DHT22;3159;52.414;9.784;2022-11-20T11:03:43;1.90;99.90
6252;DHT22;3159;52.414;9.784;2022-11-20T11:06:16;1.90;99.90
6252;DHT22;3159;52.414;9.784;2022-11-20T11:08:47;1.90;99.90
6252;DHT22;3159;52.414;9.784;2022-11-20T11:11:20;1.80;99.90
6252;DHT22;3159;52.414;9.784;2022-11-20T11:13:48;1.80;99.90
6252;DHT22;3159;52.414;9.784;2022-11-20T11:16:23;2.00;99.90
6252;DHT22;3159;52.414;9.784;2022-11-20T11:18:52;2.00;99.90
6252;DHT22;3159;52.414;9.784;2022-11-20T11:21:29;2.20;99.90
6252;DHT22;3159;52.414;9.784;2022-11-20T11:24:00;2.00;99.90
6252;DHT22;3159;52.414;9.784;2022-11-20T11:26:27;2.00;99.90
6252;DHT22;3159;52.414;9.784;2022-11-20T11:28:56;2.00;99.90
6252;DHT22;3159;52.414;9.784;2022-11-20T11:31:25;2.00;99.90
6252;DHT22;3159;52.414;9.784;2022-11-20T11:34:04;1.90;99.90
6252;DHT22;3159;52.414;9.784;2022-11-20T11:36:33;2.00;99.90
6252;DHT22;3159;52.414;9.784;2022-11-20T11:39:01;2.00;99.90
6252;DHT22;3159;52.414;9.784;2022-11-20T11:41:30;2.10;99.90
6252;DHT22;3159;52.414;9.784;2022-11-20T11:44:04;2.00;99.90
6252;DHT22;3159;52.414;9.784;2022-11-20T11:46:58;1.90;99.90
6252;DHT22;3159;52.414;9.784;2022-11-20T11:49:26;1.90;99.90
6252;DHT22;3159;52.414;9.784;2022-11-20T11:52:08;2.00;99.90
6252;DHT22;3159;52.414;9.784;2022-11-20T11:54:43;2.10;99.90
6252;DHT22;3159;52.414;9.784;2022-11-20T11:57:16;1.90;99.90
6252;DHT22;3159;52.414;9.784;2022-11-20T11:59:54;2.00;99.90
6252;DHT22;3159;52.414;9.784;2022-11-20T12:02:32;1.90;99.90
6252;DHT22;3159;52.414;9.784;2022-11-20T12:05:10;2.10;99.90
6252;DHT22;3159;52.414;9.784;2022-11-20T12:07:43;2.00;99.90
6252;DHT22;3159;52.414;9.784;2022-11-20T12:10:17;1.90;99.90
6252;DHT22;3159;52.414;9.784;2022-11-20T12:12:49;2.00;99.90
6252;DHT22;3159;52.414;9.784;2022-11-20T12:15:30;2.00;99.90
6252;DHT22;3159;52.414;9.784;2022-11-20T12:17:58;1.90;99.90
6252;DHT22;3159;52.414;9.784;2022-11-20T12:20:29;1.80;99.90
6252;DHT22;3159;52.414;9.784;2022-11-20T12:23:05;1.90;99.90
6252;DHT22;3159;52.414;9.784;2022-11-20T12:25:36;1.80;99.90
6252;DHT22;3159;52.414;9.784;2022-11-20T12:28:18;1.70;99.90
6252;DHT22;3159;52.414;9.784;2022-11-20T12:30:58;2.00;99.90
6252;DHT22;3159;52.414;9.784;2022-11-20T12:36:35;2.20;99.90
6252;DHT22;3159;52.414;9.784;2022-11-20T12:39:32;2.10;99.90
6252;DHT22;3159;52.414;9.784;2022-11-20T12:42:21;2.30;99.90
6252;DHT22;3159;52.414;9.784;2022-11-20T12:45:29;2.40;99.90
6252;DHT22;3159;52.414;9.784;2022-11-20T12:48:09;2.50;99.90
6252;DHT22;3159;52.414;9.784;2022-11-20T12:50:49;2.40;99.90
6252;DHT22;3159;52.414;9.784;2022-11-20T12:53:27;2.40;99.90
6252;DHT22;3159;52.414;9.784;2022-11-20T12:56:00;2.50;99.90
6252;DHT22;3159;52.414;9.784;2022-11-20T12:58:35;2.50;99.90
6252;DHT22;3159;52.414;9.784;2022-11-20T13:01:15;2.50;99.90
6252;DHT22;3159;52.414;9.784;2022-11-20T13:04:09;2.50;99.90
6252;DHT22;3159;52.414;9.784;2022-11-20T13:06:43;2.60;99.90
6252;DHT22;3159;52.414;9.784;2022-11-20T13:09:14;2.70;99.90
6252;DHT22;3159;52.414;9.784;2022-11-20T13:11:46;2.80;99.90
6252;DHT22;3159;52.414;9.784;2022-11-20T13:14:27;2.70;99.90
6252;DHT22;3159;52.414;9.784;2022-11-20T13:17:03;2.80;99.90
6252;DHT22;3159;52.414;9.784;2022-11-20T13:19:31;2.80;99.90
6252;DHT22;3159;52.414;9.784;2022-11-20T13:21:58;2.60;99.90
6252;DHT22;3159;52.414;9.784;2022-11-20T13:24:30;2.60;99.90
6252;DHT22;3159;52.414;9.784;2022-11-20T13:27:04;2.70;99.90
6252;DHT22;3159;52.414;9.784;2022-11-20T13:29:32;2.70;99.90
6252;DHT22;3159;52.414;9.784;2022-11-20T13:32:04;2.70;99.90
6252;DHT22;3159;52.414;9.784;2022-11-20T13:34:33;2.70;99.90
6252;DHT22;3159;52.414;9.784;2022-11-20T13:37:01;2.70;99.90
6252;DHT22;3159;52.414;9.784;2022-11-20T13:39:32;2.60;99.90
6252;DHT22;3159;52.414;9.784;2022-11-20T13:42:00;2.70;99.90
6252;DHT22;3159;52.414;9.784;2022-11-20T13:44:31;2.80;99.90
6252;DHT22;3159;52.414;9.784;2022-11-20T13:47:00;2.70;99.90
6252;DHT22;3159;52.414;9.784;2022-11-20T13:49:32;2.70;99.90
6252;DHT22;3159;52.414;9.784;2022-11-20T13:52:20;2.90;99.90
6252;DHT22;3159;52.414;9.784;2022-11-20T13:55:04;3.00;99.90
6252;DHT22;3159;52.414;9.784;2022-11-20T13:57:54;2.70;99.90
6252;DHT22;3159;52.414;9.784;2022-11-20T14:00:24;2.70;99.90
6252;DHT22;3159;52.414;9.784;2022-11-20T14:03:07;2.70;99.90
6252;DHT22;3159;52.414;9.784;2022-11-20T14:05:40;2.70;99.90
6252;DHT22;3159;52.414;9.784;2022-11-20T14:08:23;2.70;99.90
6252;DHT22;3159;52.414;9.784;2022-11-20T14:11:03;2.80;99.90
6252;DHT22;3159;52.414;9.784;2022-11-20T14:13:30;2.80;99.90
6252;DHT22;3159;52.414;9.784;2022-11-20T14:15:57;2.80;99.90
6252;DHT22;3159;52.414;9.784;2022-11-20T14:18:25;2.90;99.90
6252;DHT22;3159;52.414;9.784;2022-11-20T14:20:53;3.00;99.90
6252;DHT22;3159;52.414;9.784;2022-11-20T14:23:28;2.70;99.90
6252;DHT22;3159;52.414;9.784;2022-11-20T14:25:57;2.80;99.90
6252;DHT22;3159;52.414;9.784;2022-11-20T14:28:27;2.80;99.90
6252;DHT22;3159;52.414;9.784;2022-11-20T14:30:54;2.90;99.90
6252;DHT22;3159;52.414;9.784;2022-11-20T14:33:22;2.80;99.90
6252;DHT22;3159;52.414;9.784;2022-11-20T14:35:51;2.80;99.90
6252;DHT22;3159;52.414;9.784;2022-11-20T14:38:23;2.90;99.90
6252;DHT22;3159;52.414;9.784;2022-11-20T14:40:51;2.80;99.90
6252;DHT22;3159;52.414;9.784;2022-11-20T14:43:22;2.80;99.90
6252;DHT22;3159;52.414;9.784;2022-11-20T14:45:58;2.80;99.90
6252;DHT22;3159;52.414;9.784;2022-11-20T14:48:30;2.80;99.90
6252;DHT22;3159;52.414;9.784;2022-11-20T14:50:58;2.80;99.90
6252;DHT22;3159;52.414;9.784;2022-11-20T14:53:25;2.80;99.90
6252;DHT22;3159;52.414;9.784;2022-11-20T14:55:57;2.80;99.90
6252;DHT22;3159;52.414;9.784;2022-11-20T14:58:27;2.80;99.90
6252;DHT22;3159;52.414;9.784;2022-11-20T15:00:56;2.80;99.90
6252;DHT22;3159;52.414;9.784;2022-11-20T15:03:30;2.80;99.90
6252;DHT22;3159;52.414;9.784;2022-11-20T15:05:57;2.70;99.90
6252;DHT22;3159;52.414;9.784;2022-11-20T15:08:23;2.70;99.90
6252;DHT22;3159;52.414;9.784;2022-11-20T15:10:51;2.60;99.90
6252;DHT22;3159;52.414;9.784;2022-11-20T15:13:26;2.60;99.90
6252;DHT22;3159;52.414;9.784;2022-11-20T15:15:54;2.70;99.90
6252;DHT22;3159;52.414;9.784;2022-11-20T15:18:23;2.70;99.90
6252;DHT22;3159;52.414;9.784;2022-11-20T15:20:51;2.60;99.90
6252;DHT22;3159;52.414;9.784;2022-11-20T15:23:20;2.70;99.90
6252;DHT22;3159;52.414;9.784;2022-11-20T15:25:47;2.50;99.90
6252;DHT22;3159;52.414;9.784;2022-11-20T15:28:18;2.60;99.90
6252;DHT22;3159;52.414;9.784;2022-11-20T15:30:48;2.60;99.90
6252;DHT22;3159;52.414;9.784;2022-11-20T15:33:16;2.40;99.90
6252;DHT22;3159;52.414;9.784;2022-11-20T15:35:43;2.40;99.90
6252;DHT22;3159;52.414;9.784;2022-11-20T15:38:10;2.50;99.90
6252;DHT22;3159;52.414;9.784;2022-11-20T15:40:37;2.60;99.90
6252;DHT22;3159;52.414;9.784;2022-11-20T15:43:05;2.40;99.90
6252;DHT22;3159;52.414;9.784;2022-11-20T15:45:38;2.60;99.90
6252;DHT22;3159;52.414;9.784;2022-11-20T15:48:09;2.50;99.90
6252;DHT22;3159;52.414;9.784;2022-11-20T15:50:39;2.50;99.90
6252;DHT22;3159;52.414;9.784;2022-11-20T15:53:08;2.50;99.90
6252;DHT22;3159;52.414;9.784;2022-11-20T15:55:36;2.60;99.90
6252;DHT22;3159;52.414;9.784;2022-11-20T15:58:03;2.50;99.90
6252;DHT22;3159;52.414;9.784;2022-11-20T16:00:29;2.50;99.90
6252;DHT22;3159;52.414;9.784;2022-11-20T16:02:56;2.50;99.90
6252;DHT22;3159;52.414;9.784;2022-11-20T16:05:27;2.40;99.90
6252;DHT22;3159;52.414;9.784;2022-11-20T16:07:56;2.30;99.90
6252;DHT22;3159;52.414;9.784;2022-11-20T16:10:23;2.20;99.90
6252;DHT22;3159;52.414;9.784;2022-11-20T16:12:50;2.20;99.90
6252;DHT22;3159;52.414;9.784;2022-11-20T16:15:34;2.20;99.90
6252;DHT22;3159;52.414;9.784;2022-11-20T16:18:15;2.20;99.90
6252;DHT22;3159;52.414;9.784;2022-11-20T16:20:45;2.20;99.90
6252;DHT22;3159;52.414;9.784;2022-11-20T16:23:12;2.10;99.90
6252;DHT22;3159;52.414;9.784;2022-11-20T16:25:39;2.20;99.90
6252;DHT22;3159;52.414;9.784;2022-11-20T16:28:06;2.10;99.90
6252;DHT22;3159;52.414;9.784;2022-11-20T16:30:33;2.10;99.90
6252;DHT22;3159;52.414;9.784;2022-11-20T16:33:01;2.10;99.90